Bitflower — SBJE — position and weather

sailwx.info

Track history (hours):
 
Tides and Currents Weather Stations Pressure Air Temp Water Temp Dewpoint Dewpoint Depression Visibility Wind Speed Wind Dir Waves Ship Positions

Bitflower

Last reported at 2016-Aug-27 04:28 UTC. Time now 2016-Aug-27 06:27 UTC.
Position N 51°31' E 000°08'.

Length 116 m; draft 6.8 m.

Type: Tanker. MMSI: 266009000.

Date/timePositionNaut miles runAvg speedWind from/ knotsBaromVisibWave heightAir tempDewpointWater temp
2016-Aug-27 04:28N 51°31' E 000°08'0 0.0
2016-Aug-27 03:28N 51°31' E 000°08'0 0.0
2016-Aug-27 02:31N 51°31' E 000°08'0 0.0
2016-Aug-27 01:31N 51°31' E 000°08'0 0.0
2016-Aug-27 00:28N 51°31' E 000°08'0 0.0
2016-Aug-26 23:31N 51°31' E 000°08'0 0.0
2016-Aug-26 22:31N 51°31' E 000°08'0 0.0
2016-Aug-26 21:31N 51°31' E 000°08'0 0.0
2016-Aug-26 20:31N 51°31' E 000°08'0 0.0
2016-Aug-26 19:31N 51°31' E 000°08'0 0.0
2016-Aug-26 18:28N 51°31' E 000°08'0 0.0
2016-Aug-26 17:31N 51°31' E 000°08'0 0.0
2016-Aug-26 16:31N 51°31' E 000°08'0 0.0
2016-Aug-26 15:31N 51°31' E 000°08'1 1.3
2016-Aug-26 14:33N 51°30' E 000°10'8 8.2
2016-Aug-26 13:33N 51°27' E 000°22'10 9.6
2016-Aug-26 12:34N 51°30' E 000°37'1212.0
2016-Aug-26 11:33N 51°29' E 000°56'1211.5
2016-Aug-26 10:34N 51°29' E 001°14'1110.8
2016-Aug-26 09:34N 51°26' E 001°31'7 6.5
2016-Aug-26 08:31N 51°32' E 001°29'0 0.0
2016-Aug-26 07:31N 51°32' E 001°29'0 0.0
2016-Aug-26 06:31N 51°32' E 001°29'0 0.0
2016-Aug-26 04:31N 51°32' E 001°29'0 0.0
2016-Aug-26 03:16N 51°32' E 001°29'0 0.0
2016-Aug-26 02:28N 51°32' E 001°29'0 0.0
2016-Aug-26 00:28N 51°32' E 001°29'0 0.1
2016-Aug-25 23:28N 51°32' E 001°29'0 0.0
2016-Aug-25 22:28N 51°32' E 001°29'0 0.0
2016-Aug-25 21:31N 51°32' E 001°29'0 0.0
2016-Aug-25 20:31N 51°32' E 001°29'0 0.0
2016-Aug-25 19:29N 51°32' E 001°29'0 0.0
2016-Aug-25 18:31N 51°32' E 001°29'0 0.1
2016-Aug-25 17:31N 51°32' E 001°29'0 0.0
2016-Aug-25 16:31N 51°32' E 001°29'0 0.0
2016-Aug-25 15:31N 51°32' E 001°29'0 0.0
2016-Aug-25 13:25N 51°32' E 001°29'0 0.0
2016-Aug-25 12:28N 51°32' E 001°29'0 0.0
2016-Aug-25 11:28N 51°32' E 001°29'0 0.1
2016-Aug-25 10:25N 51°32' E 001°29'0 0.0
2016-Aug-25 09:28N 51°32' E 001°29'0 0.0
2016-Aug-25 08:16N 51°32' E 001°29'0 0.0
2016-Aug-25 07:31N 51°32' E 001°29'0 0.0
2016-Aug-25 06:31N 51°32' E 001°29'0 0.0
2016-Aug-25 04:31N 51°32' E 001°29'0 0.0
2016-Aug-25 03:31N 51°32' E 001°29'0 0.0
2016-Aug-25 02:25N 51°32' E 001°29'0 0.0
2016-Aug-25 01:25N 51°32' E 001°29'0 0.0
2016-Aug-25 00:22N 51°32' E 001°29'0 0.0
2016-Aug-24 23:31N 51°32' E 001°29'0 0.1
2016-Aug-24 22:13N 51°32' E 001°29'0 0.1
2016-Aug-24 21:31N 51°32' E 001°29'0 0.0
2016-Aug-24 20:22N 51°32' E 001°29'0 0.0
2016-Aug-24 19:28N 51°32' E 001°29'0 0.0
2016-Aug-24 18:28N 51°32' E 001°29'0 0.0
2016-Aug-24 17:25N 51°32' E 001°29'0 0.1
2016-Aug-24 16:28N 51°32' E 001°29'0 0.0
2016-Aug-24 15:31N 51°32' E 001°29'0 0.0
2016-Aug-24 14:31N 51°32' E 001°29'0 0.0
2016-Aug-24 13:28N 51°32' E 001°29'0 0.0
2016-Aug-24 12:31N 51°32' E 001°29'0 0.0
2016-Aug-24 11:25N 51°32' E 001°29'0 0.0
2016-Aug-24 10:31N 51°32' E 001°29'0 0.1
2016-Aug-24 09:31N 51°32' E 001°29'0 0.0
2016-Aug-24 08:31N 51°32' E 001°29'0 0.0
2016-Aug-24 07:31N 51°32' E 001°29'0 0.0
2016-Aug-24 06:31N 51°32' E 001°29'0 0.0
2016-Aug-24 04:31N 51°32' E 001°29'0 0.0
2016-Aug-24 03:28N 51°32' E 001°29'0 0.0
2016-Aug-24 02:31N 51°32' E 001°29'0 0.0
2016-Aug-24 01:22N 51°32' E 001°29'0 0.0
2016-Aug-24 00:31N 51°32' E 001°29'0 0.0
2016-Aug-23 23:28N 51°32' E 001°29'0 0.0
2016-Aug-23 22:31N 51°32' E 001°29'0 0.0
2016-Aug-23 21:31N 51°32' E 001°29'0 0.1
2016-Aug-23 20:31N 51°32' E 001°29'0 0.0
2016-Aug-23 19:31N 51°32' E 001°29'0 0.0
2016-Aug-23 18:31N 51°32' E 001°29'0 0.0
2016-Aug-23 17:31N 51°32' E 001°29'0 0.0
2016-Aug-23 16:31N 51°32' E 001°29'0 0.1
2016-Aug-23 15:19N 51°32' E 001°29'0 0.1
2016-Aug-23 14:28N 51°32' E 001°29'0 0.0
2016-Aug-23 13:28N 51°32' E 001°29'0 0.0
2016-Aug-23 12:10N 51°32' E 001°29'0 0.0
2016-Aug-23 11:31N 51°32' E 001°29'0 0.0
2016-Aug-23 10:28N 51°32' E 001°29'0 0.0
2016-Aug-23 09:31N 51°32' E 001°29'0 0.1
2016-Aug-23 08:31N 51°32' E 001°29'0 0.0
2016-Aug-23 07:31N 51°32' E 001°29'0 0.0
2016-Aug-23 06:32N 51°32' E 001°29'0 0.0
2016-Aug-23 05:29N 51°32' E 001°29'0 0.1
2016-Aug-23 04:23N 51°32' E 001°29'0 0.1
2016-Aug-23 03:32N 51°32' E 001°29'0 0.0
2016-Aug-23 02:23N 51°32' E 001°29'0 0.0
2016-Aug-23 01:32N 51°32' E 001°29'0 0.0
2016-Aug-23 00:23N 51°32' E 001°29'0 0.0
2016-Aug-22 20:14N 51°32' E 001°29'0 0.0
2016-Aug-22 19:28N 51°32' E 001°29'0 0.0
2016-Aug-22 18:33N 51°32' E 001°29'0 0.0
2016-Aug-22 17:33N 51°32' E 001°29'0 0.0
2016-Aug-22 16:33N 51°32' E 001°29'0 0.1
2016-Aug-22 15:33N 51°32' E 001°29'0 0.1
2016-Aug-22 14:33N 51°32' E 001°29'0 0.0
2016-Aug-22 13:21N 51°32' E 001°29'0 0.1
2016-Aug-22 12:33N 51°32' E 001°29'0 0.0
2016-Aug-22 11:28N 51°32' E 001°29'0 0.1
2016-Aug-22 10:31N 51°32' E 001°29'0 0.2
2016-Aug-22 09:31N 51°32' E 001°29'0 0.1
2016-Aug-22 08:33N 51°32' E 001°29'0 0.0
2016-Aug-22 07:33N 51°32' E 001°29'0 0.0
2016-Aug-22 06:33N 51°32' E 001°29'0 0.0
2016-Aug-22 05:34N 51°32' E 001°29'0 0.0
2016-Aug-22 04:33N 51°32' E 001°29'0 0.0
2016-Aug-22 03:33N 51°32' E 001°29'0 0.1
2016-Aug-22 02:33N 51°32' E 001°29'0 0.1
2016-Aug-22 01:33N 51°32' E 001°29'0 0.0
2016-Aug-22 00:33N 51°32' E 001°29'0 0.1
2016-Aug-21 23:33N 51°32' E 001°29'0 0.1
2016-Aug-21 22:33N 51°32' E 001°29'4 4.6
2016-Aug-21 21:33N 51°32' E 001°36'1313.3
2016-Aug-21 20:33N 51°35' E 001°57'7711.0
2016-Aug-21 13:33N 52°03' E 003°53'1010.3
2016-Aug-21 12:34N 51°58' E 004°08'9 8.9
2016-Aug-21 11:30N 51°53' E 004°21'0 0.0
2016-Aug-21 10:31N 51°53' E 004°21'0 0.0
2016-Aug-21 09:31N 51°53' E 004°21'0 0.0
2016-Aug-21 08:25N 51°53' E 004°21'0 0.0
2016-Aug-21 07:29N 51°53' E 004°21'0 0.0
2016-Aug-21 06:30N 51°53' E 004°21'0 0.0
2016-Aug-21 05:31N 51°53' E 004°21'0 0.0
2016-Aug-21 04:31N 51°53' E 004°21'0 0.0
2016-Aug-21 03:31N 51°53' E 004°21'0 0.0
2016-Aug-21 01:34N 51°53' E 004°21'0 0.0
2016-Aug-21 00:33N 51°53' E 004°21'0 0.0
2016-Aug-20 23:33N 51°53' E 004°21'0 0.0
2016-Aug-20 22:34N 51°53' E 004°21'0 0.0
2016-Aug-20 21:34N 51°53' E 004°21'0 0.0
2016-Aug-20 20:33N 51°53' E 004°21'0 0.0
2016-Aug-20 19:27N 51°53' E 004°21'0 0.0
2016-Aug-20 18:31N 51°53' E 004°21'0 0.0
2016-Aug-20 17:34N 51°53' E 004°21'0 0.0
2016-Aug-20 16:30N 51°53' E 004°21'0 0.0
2016-Aug-20 15:33N 51°53' E 004°21'0 0.0
2016-Aug-20 14:34N 51°53' E 004°21'0 0.0
2016-Aug-20 13:33N 51°53' E 004°21'0 0.0
2016-Aug-20 12:28N 51°53' E 004°21'0 0.0
2016-Aug-20 11:34N 51°53' E 004°21'0 0.0
2016-Aug-20 09:30N 51°53' E 004°21'0 0.0
2016-Aug-20 08:30N 51°53' E 004°21'0 0.0
2016-Aug-20 07:34N 51°53' E 004°21'2 2.4
2016-Aug-20 06:34N 51°54' E 004°17'1211.9
2016-Aug-20 05:34N 52°00' E 004°00'10 9.9
2016-Aug-20 04:33N 52°05' E 003°46'11411.4
2016-Aug-19 18:33N 53°53' E 004°51'1412.1
2016-Aug-19 17:25N 54°06' E 004°59'1212.7
2016-Aug-19 16:29N 54°16' E 005°07'15813.3
2016-Aug-19 04:33N 56°34' E 007°25'1714.0
2016-Aug-19 03:20N 56°49' E 007°41'1214.6
2016-Aug-19 02:33N 56°58' E 007°51'1514.7
2016-Aug-19 01:33N 57°11' E 008°05'1414.4
2016-Aug-19 00:33N 57°23' E 008°21'4113.8
2016-Aug-18 21:33N 57°56' E 009°07'5614.1
2016-Aug-18 17:33N 58°41' E 010°10'1313.1
2016-Aug-18 16:33N 58°52' E 010°25'1313.3
2016-Aug-18 15:33N 59°02' E 010°43'9 8.9
2016-Aug-18 14:34N 59°05' E 010°58'1010.0
2016-Aug-18 13:34N 59°15' E 011°01'1 0.5
2016-Aug-18 12:31N 59°16' E 011°02'0 0.0
2016-Aug-18 11:31N 59°16' E 011°02'0 0.0
2016-Aug-18 10:28N 59°16' E 011°02'0 0.0
2016-Aug-18 09:31N 59°16' E 011°02'0 0.0
2016-Aug-18 08:28N 59°16' E 011°02'0 0.0
2016-Aug-18 07:31N 59°16' E 011°02'0 0.0
2016-Aug-18 06:28N 59°16' E 011°02'0 0.0
2016-Aug-18 05:29N 59°16' E 011°02'0 0.0
2016-Aug-18 04:31N 59°16' E 011°02'0 0.0
2016-Aug-18 03:31N 59°16' E 011°02'0 0.0
2016-Aug-18 02:31N 59°16' E 011°02'0 0.0
2016-Aug-18 01:32N 59°16' E 011°02'0 0.0
2016-Aug-18 00:31N 59°16' E 011°02'0 0.0
2016-Aug-17 23:31N 59°16' E 011°02'0 0.0
2016-Aug-17 22:31N 59°16' E 011°02'0 0.0
2016-Aug-17 21:31N 59°16' E 011°02'0 0.0
2016-Aug-17 20:31N 59°16' E 011°02'0 0.0
2016-Aug-17 19:33N 59°16' E 011°02'4 3.9
2016-Aug-17 18:33N 59°13' E 010°57'8 7.9
2016-Aug-17 17:33N 59°05' E 010°58'7 7.0
2016-Aug-17 16:33N 59°08' E 010°47'1413.9
2016-Aug-17 15:33N 59°21' E 010°38'1413.7
2016-Aug-17 14:34N 59°33' E 010°24'  
Track history (hours):
 
Tides and Currents Weather Stations Pressure Air Temp Water Temp Dewpoint Dewpoint Depression Visibility Wind Speed Wind Dir Waves Ship Positions

Bitflower

Last reported at 2016-Aug-27 04:28 UTC. Time now 2016-Aug-27 06:27 UTC.
Position N 51°31' E 000°08'.

Length 116 m; draft 6.8 m.

Type: Tanker. MMSI: 266009000.

Date/timePositionNaut miles runAvg speedWind from/ knotsBaromVisibWave heightAir tempDewpointWater temp
2016-Aug-27 04:28N 51°31' E 000°08'0 0.0
2016-Aug-27 03:28N 51°31' E 000°08'0 0.0
2016-Aug-27 02:31N 51°31' E 000°08'0 0.0
2016-Aug-27 01:31N 51°31' E 000°08'0 0.0
2016-Aug-27 00:28N 51°31' E 000°08'0 0.0
2016-Aug-26 23:31N 51°31' E 000°08'0 0.0
2016-Aug-26 22:31N 51°31' E 000°08'0 0.0
2016-Aug-26 21:31N 51°31' E 000°08'0 0.0
2016-Aug-26 20:31N 51°31' E 000°08'0 0.0
2016-Aug-26 19:31N 51°31' E 000°08'0 0.0
2016-Aug-26 18:28N 51°31' E 000°08'0 0.0
2016-Aug-26 17:31N 51°31' E 000°08'0 0.0
2016-Aug-26 16:31N 51°31' E 000°08'0 0.0
2016-Aug-26 15:31N 51°31' E 000°08'1 1.3
2016-Aug-26 14:33N 51°30' E 000°10'8 8.2
2016-Aug-26 13:33N 51°27' E 000°22'10 9.6
2016-Aug-26 12:34N 51°30' E 000°37'1212.0
2016-Aug-26 11:33N 51°29' E 000°56'1211.5
2016-Aug-26 10:34N 51°29' E 001°14'1110.8
2016-Aug-26 09:34N 51°26' E 001°31'7 6.5
2016-Aug-26 08:31N 51°32' E 001°29'0 0.0
2016-Aug-26 07:31N 51°32' E 001°29'0 0.0
2016-Aug-26 06:31N 51°32' E 001°29'0 0.0
2016-Aug-26 04:31N 51°32' E 001°29'0 0.0
2016-Aug-26 03:16N 51°32' E 001°29'0 0.0
2016-Aug-26 02:28N 51°32' E 001°29'0 0.0
2016-Aug-26 00:28N 51°32' E 001°29'0 0.1
2016-Aug-25 23:28N 51°32' E 001°29'0 0.0
2016-Aug-25 22:28N 51°32' E 001°29'0 0.0
2016-Aug-25 21:31N 51°32' E 001°29'0 0.0
2016-Aug-25 20:31N 51°32' E 001°29'0 0.0
2016-Aug-25 19:29N 51°32' E 001°29'0 0.0
2016-Aug-25 18:31N 51°32' E 001°29'0 0.1
2016-Aug-25 17:31N 51°32' E 001°29'0 0.0
2016-Aug-25 16:31N 51°32' E 001°29'0 0.0
2016-Aug-25 15:31N 51°32' E 001°29'0 0.0
2016-Aug-25 13:25N 51°32' E 001°29'0 0.0
2016-Aug-25 12:28N 51°32' E 001°29'0 0.0
2016-Aug-25 11:28N 51°32' E 001°29'0 0.1
2016-Aug-25 10:25N 51°32' E 001°29'0 0.0
2016-Aug-25 09:28N 51°32' E 001°29'0 0.0
2016-Aug-25 08:16N 51°32' E 001°29'0 0.0
2016-Aug-25 07:31N 51°32' E 001°29'0 0.0
2016-Aug-25 06:31N 51°32' E 001°29'0 0.0
2016-Aug-25 04:31N 51°32' E 001°29'0 0.0
2016-Aug-25 03:31N 51°32' E 001°29'0 0.0
2016-Aug-25 02:25N 51°32' E 001°29'0 0.0
2016-Aug-25 01:25N 51°32' E 001°29'0 0.0
2016-Aug-25 00:22N 51°32' E 001°29'0 0.0
2016-Aug-24 23:31N 51°32' E 001°29'0 0.1
2016-Aug-24 22:13N 51°32' E 001°29'0 0.1
2016-Aug-24 21:31N 51°32' E 001°29'0 0.0
2016-Aug-24 20:22N 51°32' E 001°29'0 0.0
2016-Aug-24 19:28N 51°32' E 001°29'0 0.0
2016-Aug-24 18:28N 51°32' E 001°29'0 0.0
2016-Aug-24 17:25N 51°32' E 001°29'0 0.1
2016-Aug-24 16:28N 51°32' E 001°29'0 0.0
2016-Aug-24 15:31N 51°32' E 001°29'0 0.0
2016-Aug-24 14:31N 51°32' E 001°29'0 0.0
2016-Aug-24 13:28N 51°32' E 001°29'0 0.0
2016-Aug-24 12:31N 51°32' E 001°29'0 0.0
2016-Aug-24 11:25N 51°32' E 001°29'0 0.0
2016-Aug-24 10:31N 51°32' E 001°29'0 0.1
2016-Aug-24 09:31N 51°32' E 001°29'0 0.0
2016-Aug-24 08:31N 51°32' E 001°29'0 0.0
2016-Aug-24 07:31N 51°32' E 001°29'0 0.0
2016-Aug-24 06:31N 51°32' E 001°29'0 0.0
2016-Aug-24 04:31N 51°32' E 001°29'0 0.0
2016-Aug-24 03:28N 51°32' E 001°29'0 0.0
2016-Aug-24 02:31N 51°32' E 001°29'0 0.0
2016-Aug-24 01:22N 51°32' E 001°29'0 0.0
2016-Aug-24 00:31N 51°32' E 001°29'0 0.0
2016-Aug-23 23:28N 51°32' E 001°29'0 0.0
2016-Aug-23 22:31N 51°32' E 001°29'0 0.0
2016-Aug-23 21:31N 51°32' E 001°29'0 0.1
2016-Aug-23 20:31N 51°32' E 001°29'0 0.0
2016-Aug-23 19:31N 51°32' E 001°29'0 0.0
2016-Aug-23 18:31N 51°32' E 001°29'0 0.0
2016-Aug-23 17:31N 51°32' E 001°29'0 0.0
2016-Aug-23 16:31N 51°32' E 001°29'0 0.1
2016-Aug-23 15:19N 51°32' E 001°29'0 0.1
2016-Aug-23 14:28N 51°32' E 001°29'0 0.0
2016-Aug-23 13:28N 51°32' E 001°29'0 0.0
2016-Aug-23 12:10N 51°32' E 001°29'0 0.0
2016-Aug-23 11:31N 51°32' E 001°29'0 0.0
2016-Aug-23 10:28N 51°32' E 001°29'0 0.0
2016-Aug-23 09:31N 51°32' E 001°29'0 0.1
2016-Aug-23 08:31N 51°32' E 001°29'0 0.0
2016-Aug-23 07:31N 51°32' E 001°29'0 0.0
2016-Aug-23 06:32N 51°32' E 001°29'0 0.0
2016-Aug-23 05:29N 51°32' E 001°29'0 0.1
2016-Aug-23 04:23N 51°32' E 001°29'0 0.1
2016-Aug-23 03:32N 51°32' E 001°29'0 0.0
2016-Aug-23 02:23N 51°32' E 001°29'0 0.0
2016-Aug-23 01:32N 51°32' E 001°29'0 0.0
2016-Aug-23 00:23N 51°32' E 001°29'0 0.0
2016-Aug-22 20:14N 51°32' E 001°29'0 0.0
2016-Aug-22 19:28N 51°32' E 001°29'0 0.0
2016-Aug-22 18:33N 51°32' E 001°29'0 0.0
2016-Aug-22 17:33N 51°32' E 001°29'0 0.0
2016-Aug-22 16:33N 51°32' E 001°29'0 0.1
2016-Aug-22 15:33N 51°32' E 001°29'0 0.1
2016-Aug-22 14:33N 51°32' E 001°29'0 0.0
2016-Aug-22 13:21N 51°32' E 001°29'0 0.1
2016-Aug-22 12:33N 51°32' E 001°29'0 0.0
2016-Aug-22 11:28N 51°32' E 001°29'0 0.1
2016-Aug-22 10:31N 51°32' E 001°29'0 0.2
2016-Aug-22 09:31N 51°32' E 001°29'0 0.1
2016-Aug-22 08:33N 51°32' E 001°29'0 0.0
2016-Aug-22 07:33N 51°32' E 001°29'0 0.0
2016-Aug-22 06:33N 51°32' E 001°29'0 0.0
2016-Aug-22 05:34N 51°32' E 001°29'0 0.0
2016-Aug-22 04:33N 51°32' E 001°29'0 0.0
2016-Aug-22 03:33N 51°32' E 001°29'0 0.1
2016-Aug-22 02:33N 51°32' E 001°29'0 0.1
2016-Aug-22 01:33N 51°32' E 001°29'0 0.0
2016-Aug-22 00:33N 51°32' E 001°29'0 0.1
2016-Aug-21 23:33N 51°32' E 001°29'0 0.1
2016-Aug-21 22:33N 51°32' E 001°29'4 4.6
2016-Aug-21 21:33N 51°32' E 001°36'1313.3
2016-Aug-21 20:33N 51°35' E 001°57'7711.0
2016-Aug-21 13:33N 52°03' E 003°53'1010.3
2016-Aug-21 12:34N 51°58' E 004°08'9 8.9
2016-Aug-21 11:30N 51°53' E 004°21'0 0.0
2016-Aug-21 10:31N 51°53' E 004°21'0 0.0
2016-Aug-21 09:31N 51°53' E 004°21'0 0.0
2016-Aug-21 08:25N 51°53' E 004°21'0 0.0
2016-Aug-21 07:29N 51°53' E 004°21'0 0.0
2016-Aug-21 06:30N 51°53' E 004°21'0 0.0
2016-Aug-21 05:31N 51°53' E 004°21'0 0.0
2016-Aug-21 04:31N 51°53' E 004°21'0 0.0
2016-Aug-21 03:31N 51°53' E 004°21'0 0.0
2016-Aug-21 01:34N 51°53' E 004°21'0 0.0
2016-Aug-21 00:33N 51°53' E 004°21'0 0.0
2016-Aug-20 23:33N 51°53' E 004°21'0 0.0
2016-Aug-20 22:34N 51°53' E 004°21'0 0.0
2016-Aug-20 21:34N 51°53' E 004°21'0 0.0
2016-Aug-20 20:33N 51°53' E 004°21'0 0.0
2016-Aug-20 19:27N 51°53' E 004°21'0 0.0
2016-Aug-20 18:31N 51°53' E 004°21'0 0.0
2016-Aug-20 17:34N 51°53' E 004°21'0 0.0
2016-Aug-20 16:30N 51°53' E 004°21'0 0.0
2016-Aug-20 15:33N 51°53' E 004°21'0 0.0
2016-Aug-20 14:34N 51°53' E 004°21'0 0.0
2016-Aug-20 13:33N 51°53' E 004°21'0 0.0
2016-Aug-20 12:28N 51°53' E 004°21'0 0.0
2016-Aug-20 11:34N 51°53' E 004°21'0 0.0
2016-Aug-20 09:30N 51°53' E 004°21'0 0.0
2016-Aug-20 08:30N 51°53' E 004°21'0 0.0
2016-Aug-20 07:34N 51°53' E 004°21'2 2.4
2016-Aug-20 06:34N 51°54' E 004°17'1211.9
2016-Aug-20 05:34N 52°00' E 004°00'10 9.9
2016-Aug-20 04:33N 52°05' E 003°46'11411.4
2016-Aug-19 18:33N 53°53' E 004°51'1412.1
2016-Aug-19 17:25N 54°06' E 004°59'1212.7
2016-Aug-19 16:29N 54°16' E 005°07'15813.3
2016-Aug-19 04:33N 56°34' E 007°25'1714.0
2016-Aug-19 03:20N 56°49' E 007°41'1214.6
2016-Aug-19 02:33N 56°58' E 007°51'1514.7
2016-Aug-19 01:33N 57°11' E 008°05'1414.4
2016-Aug-19 00:33N 57°23' E 008°21'4113.8
2016-Aug-18 21:33N 57°56' E 009°07'5614.1
2016-Aug-18 17:33N 58°41' E 010°10'1313.1
2016-Aug-18 16:33N 58°52' E 010°25'1313.3
2016-Aug-18 15:33N 59°02' E 010°43'9 8.9
2016-Aug-18 14:34N 59°05' E 010°58'1010.0
2016-Aug-18 13:34N 59°15' E 011°01'1 0.5
2016-Aug-18 12:31N 59°16' E 011°02'0 0.0
2016-Aug-18 11:31N 59°16' E 011°02'0 0.0
2016-Aug-18 10:28N 59°16' E 011°02'0 0.0
2016-Aug-18 09:31N 59°16' E 011°02'0 0.0
2016-Aug-18 08:28N 59°16' E 011°02'0 0.0
2016-Aug-18 07:31N 59°16' E 011°02'0 0.0
2016-Aug-18 06:28N 59°16' E 011°02'0 0.0
2016-Aug-18 05:29N 59°16' E 011°02'0 0.0
2016-Aug-18 04:31N 59°16' E 011°02'0 0.0
2016-Aug-18 03:31N 59°16' E 011°02'0 0.0
2016-Aug-18 02:31N 59°16' E 011°02'0 0.0
2016-Aug-18 01:32N 59°16' E 011°02'0 0.0
2016-Aug-18 00:31N 59°16' E 011°02'0 0.0
2016-Aug-17 23:31N 59°16' E 011°02'0 0.0
2016-Aug-17 22:31N 59°16' E 011°02'0 0.0
2016-Aug-17 21:31N 59°16' E 011°02'0 0.0
2016-Aug-17 20:31N 59°16' E 011°02'0 0.0
2016-Aug-17 19:33N 59°16' E 011°02'4 3.9
2016-Aug-17 18:33N 59°13' E 010°57'8 7.9
2016-Aug-17 17:33N 59°05' E 010°58'7 7.0
2016-Aug-17 16:33N 59°08' E 010°47'1413.9
2016-Aug-17 15:33N 59°21' E 010°38'1413.7
2016-Aug-17 14:34N 59°33' E 010°24'  

Dump ship's entire track history